createdAt,value
2018-02-12T00:01:20.405Z,0.40
2018-02-12T00:03:46.920Z,0.40
2018-02-12T00:06:13.311Z,0.40
2018-02-12T00:08:39.698Z,0.40
2018-02-12T00:11:06.143Z,0.30
2018-02-12T00:13:33.634Z,0.30
2018-02-12T00:16:00.186Z,0.30
2018-02-12T00:18:26.708Z,0.30
2018-02-12T00:20:53.258Z,0.30
2018-02-12T00:23:19.782Z,0.30
2018-02-12T00:25:46.188Z,0.20
2018-02-12T00:28:12.545Z,0.20
2018-02-12T00:30:38.938Z,0.20
2018-02-12T00:33:05.343Z,0.20
2018-02-12T00:35:31.781Z,0.20
2018-02-12T00:37:58.112Z,0.20
2018-02-12T00:40:24.555Z,0.20
2018-02-12T00:42:50.910Z,0.20
2018-02-12T00:45:17.352Z,0.20
2018-02-12T00:47:43.800Z,0.20
2018-02-12T00:50:10.200Z,0.30
2018-02-12T00:52:36.572Z,0.30
2018-02-12T00:55:03.131Z,0.30
2018-02-12T00:57:29.498Z,0.30
2018-02-12T00:59:56.032Z,0.30
2018-02-12T01:02:22.492Z,0.30
2018-02-12T01:04:48.867Z,0.40
2018-02-12T01:07:15.254Z,0.40
2018-02-12T01:09:41.743Z,0.30
2018-02-12T01:12:08.112Z,0.30
2018-02-12T01:14:34.685Z,0.30
2018-02-12T01:17:01.185Z,0.40
2018-02-12T01:19:27.602Z,0.30
2018-02-12T01:21:53.999Z,0.30
2018-02-12T01:24:20.423Z,0.40
2018-02-12T01:26:46.814Z,0.40
2018-02-12T01:29:13.199Z,0.40
2018-02-12T01:31:39.662Z,0.40
2018-02-12T01:34:06.062Z,0.40
2018-02-12T01:36:32.497Z,0.40
2018-02-12T01:38:58.914Z,0.40
2018-02-12T01:41:25.322Z,0.40
2018-02-12T01:43:51.765Z,0.40
2018-02-12T01:46:18.209Z,0.50
2018-02-12T01:48:44.616Z,0.50
2018-02-12T01:51:11.062Z,0.50
2018-02-12T01:53:37.470Z,0.40
2018-02-12T01:56:03.921Z,0.40
2018-02-12T01:58:30.326Z,0.50
2018-02-12T02:00:56.739Z,0.50
2018-02-12T02:03:23.183Z,0.50
2018-02-12T02:05:49.637Z,0.40
2018-02-12T02:08:16.072Z,0.40
2018-02-12T02:10:42.420Z,0.40
2018-02-12T02:13:08.767Z,0.40
2018-02-12T02:15:35.250Z,0.40
2018-02-12T02:18:01.630Z,0.50
2018-02-12T02:20:28.080Z,0.50
2018-02-12T02:22:54.452Z,0.40
2018-02-12T02:25:20.877Z,0.40
2018-02-12T02:27:47.259Z,0.40
2018-02-12T02:30:13.692Z,0.40
2018-02-12T02:32:40.062Z,0.40
2018-02-12T02:35:07.576Z,0.40
2018-02-12T02:37:34.925Z,0.40
2018-02-12T02:40:01.280Z,0.50
2018-02-12T02:42:27.736Z,0.40
2018-02-12T02:44:54.205Z,0.50
2018-02-12T02:47:20.581Z,0.40
2018-02-12T02:49:46.970Z,0.50
2018-02-12T02:52:13.376Z,0.40
2018-02-12T02:54:39.849Z,0.50
2018-02-12T02:57:06.306Z,0.60
2018-02-12T02:59:32.715Z,0.50
2018-02-12T03:01:59.098Z,0.50
2018-02-12T03:04:25.535Z,0.50
2018-02-12T03:06:51.972Z,0.60
2018-02-12T03:09:18.324Z,0.60
2018-02-12T03:11:44.765Z,0.50
2018-02-12T03:14:11.210Z,0.40
2018-02-12T03:16:37.673Z,0.40
2018-02-12T03:19:04.048Z,0.40
2018-02-12T03:21:30.488Z,0.40
2018-02-12T03:23:56.918Z,0.40
2018-02-12T03:26:23.380Z,0.40
2018-02-12T03:28:49.767Z,0.50
2018-02-12T03:31:16.151Z,0.50
2018-02-12T03:33:42.565Z,0.40
2018-02-12T03:36:09.117Z,0.40
2018-02-12T03:38:35.746Z,0.40
2018-02-12T03:41:02.198Z,0.50
2018-02-12T03:43:28.600Z,0.50
2018-02-12T03:45:55.073Z,0.50
2018-02-12T03:48:21.482Z,0.40
2018-02-12T03:50:47.901Z,0.40
2018-02-12T03:53:14.347Z,0.40
2018-02-12T03:55:40.768Z,0.40
2018-02-12T03:58:07.176Z,0.40
2018-02-12T04:00:33.575Z,0.40
2018-02-12T04:03:00.012Z,0.50
2018-02-12T04:05:26.524Z,0.50
2018-02-12T04:07:52.886Z,0.40
2018-02-12T04:10:20.060Z,0.40
2018-02-12T04:12:46.547Z,0.40
2018-02-12T04:15:13.062Z,0.40
2018-02-12T04:17:39.457Z,0.40
2018-02-12T04:20:05.959Z,0.40
2018-02-12T04:22:32.403Z,0.40
2018-02-12T04:24:58.868Z,0.40
2018-02-12T04:27:25.368Z,0.40
2018-02-12T04:29:51.729Z,0.30
2018-02-12T04:32:18.081Z,0.30
2018-02-12T04:34:44.690Z,0.30
2018-02-12T04:37:11.071Z,0.30
2018-02-12T04:39:37.435Z,0.30
2018-02-12T04:42:03.887Z,0.30
2018-02-12T04:44:30.389Z,0.30
2018-02-12T04:46:56.842Z,0.30
2018-02-12T04:49:23.335Z,0.30
2018-02-12T04:51:49.793Z,0.30
2018-02-12T04:54:16.330Z,0.30
2018-02-12T04:56:42.791Z,0.30
2018-02-12T04:59:09.262Z,0.30
2018-02-12T05:01:35.692Z,0.30
2018-02-12T05:04:02.232Z,0.30
2018-02-12T05:06:28.597Z,0.30
2018-02-12T05:08:55.020Z,0.30
2018-02-12T05:11:21.482Z,0.30
2018-02-12T05:13:47.875Z,0.30
2018-02-12T05:16:14.295Z,0.30
2018-02-12T05:18:40.791Z,0.30
2018-02-12T05:21:07.392Z,0.30
2018-02-12T05:23:33.804Z,0.30
2018-02-12T05:26:00.377Z,0.30
2018-02-12T05:28:26.995Z,0.30
2018-02-12T05:30:53.431Z,0.30
2018-02-12T05:33:19.828Z,0.30
2018-02-12T05:35:46.504Z,0.30
2018-02-12T05:38:13.339Z,0.30
2018-02-12T05:40:39.813Z,0.40
2018-02-12T05:43:06.244Z,0.40
2018-02-12T05:45:33.011Z,0.40
2018-02-12T05:47:59.745Z,0.50
2018-02-12T05:50:26.621Z,0.50
2018-02-12T05:52:53.671Z,0.40
2018-02-12T05:55:20.265Z,0.50
2018-02-12T05:57:46.796Z,0.50
2018-02-12T06:00:13.175Z,0.60
2018-02-12T06:02:39.664Z,0.70
2018-02-12T06:05:06.152Z,0.90
2018-02-12T06:07:32.599Z,0.90
2018-02-12T06:09:59.110Z,0.90
2018-02-12T06:12:25.596Z,0.80
2018-02-12T06:14:52.054Z,0.90
2018-02-12T06:17:18.509Z,0.90
2018-02-12T06:19:45.002Z,1.10
2018-02-12T06:22:11.435Z,1.10
2018-02-12T06:24:38.060Z,1.20
2018-02-12T06:27:04.521Z,1.20
2018-02-12T06:29:30.898Z,1.50
2018-02-12T06:31:57.382Z,1.70
2018-02-12T06:34:23.847Z,1.70
2018-02-12T06:36:50.354Z,1.90
2018-02-12T06:39:16.867Z,2.00
2018-02-12T06:41:43.296Z,2.10
2018-02-12T06:44:09.993Z,2.10
2018-02-12T06:46:36.558Z,2.30
2018-02-12T06:49:03.140Z,2.40
2018-02-12T06:51:29.616Z,2.50
2018-02-12T06:53:56.788Z,2.70
2018-02-12T06:56:23.243Z,2.70
2018-02-12T06:58:49.920Z,2.70
2018-02-12T07:01:16.403Z,2.70
2018-02-12T07:03:42.826Z,2.70
2018-02-12T07:06:09.718Z,2.60
2018-02-12T07:08:36.192Z,2.60
2018-02-12T07:11:02.611Z,2.60
2018-02-12T07:13:29.034Z,2.50
2018-02-12T07:15:55.496Z,2.30
2018-02-12T07:18:21.958Z,2.50
2018-02-12T07:20:48.442Z,2.50
2018-02-12T07:23:14.969Z,2.30
2018-02-12T07:25:41.427Z,2.40
2018-02-12T07:28:07.884Z,2.50
2018-02-12T07:30:34.457Z,2.50
2018-02-12T07:33:00.924Z,2.70
2018-02-12T07:35:27.617Z,2.90
2018-02-12T07:37:54.088Z,2.90
2018-02-12T07:40:20.580Z,3.00
2018-02-12T07:42:46.971Z,3.00
2018-02-12T07:45:13.426Z,2.90
2018-02-12T07:47:39.820Z,2.80
2018-02-12T07:50:06.371Z,2.80
2018-02-12T07:52:33.300Z,2.50
2018-02-12T07:55:00.272Z,2.50
2018-02-12T07:57:26.737Z,2.50
2018-02-12T07:59:53.274Z,2.50
2018-02-12T08:02:19.856Z,2.40
2018-02-12T08:04:46.493Z,2.40
2018-02-12T08:07:13.280Z,2.40
2018-02-12T08:09:39.879Z,2.30
2018-02-12T08:12:06.321Z,2.50
2018-02-12T08:14:32.787Z,2.70
2018-02-12T08:16:59.313Z,2.50
2018-02-12T08:19:25.930Z,2.90
2018-02-12T08:21:52.401Z,2.90
2018-02-12T08:24:19.018Z,2.80
2018-02-12T08:26:45.657Z,3.00
2018-02-12T08:29:12.137Z,3.10
2018-02-12T08:31:38.582Z,3.00
2018-02-12T08:34:06.054Z,3.20
2018-02-12T08:36:32.614Z,3.20
2018-02-12T08:38:59.000Z,3.10
2018-02-12T08:41:25.473Z,3.00
2018-02-12T08:43:52.632Z,3.00
2018-02-12T08:46:19.254Z,2.90
2018-02-12T08:48:45.717Z,3.20
2018-02-12T08:51:12.195Z,3.20
2018-02-12T08:53:38.631Z,3.30
2018-02-12T08:56:05.101Z,3.20
2018-02-12T08:58:31.612Z,3.40
2018-02-12T09:00:58.118Z,3.40
2018-02-12T09:03:24.599Z,3.60
2018-02-12T09:05:51.138Z,3.30
2018-02-12T09:08:17.594Z,3.30
2018-02-12T09:10:44.158Z,3.60
2018-02-12T09:13:10.702Z,3.50
2018-02-12T09:15:37.319Z,3.70
2018-02-12T09:18:03.764Z,3.70
2018-02-12T09:20:30.245Z,3.70
2018-02-12T09:22:56.716Z,3.60
2018-02-12T09:25:23.242Z,3.50
2018-02-12T09:27:49.932Z,3.40
2018-02-12T09:30:16.476Z,3.50
2018-02-12T09:32:43.067Z,3.80
2018-02-12T09:35:09.987Z,3.70
2018-02-12T09:37:36.694Z,3.80
2018-02-12T09:40:03.314Z,3.90
2018-02-12T09:42:29.781Z,3.90
2018-02-12T09:44:56.368Z,3.70
2018-02-12T09:47:22.954Z,4.00
2018-02-12T09:49:49.465Z,4.30
2018-02-12T09:52:15.958Z,4.30
2018-02-12T09:54:42.516Z,4.10
2018-02-12T09:57:09.061Z,4.10
2018-02-12T09:59:35.478Z,4.10
2018-02-12T10:02:01.950Z,4.10
2018-02-12T10:04:28.498Z,4.10
2018-02-12T10:06:55.101Z,4.20
2018-02-12T10:09:21.578Z,4.10
2018-02-12T10:11:48.123Z,4.10
2018-02-12T10:14:14.570Z,4.30
2018-02-12T10:16:41.038Z,4.60
2018-02-12T10:19:07.581Z,4.60
2018-02-12T10:21:34.009Z,4.40
2018-02-12T10:24:00.520Z,4.40
2018-02-12T10:26:27.099Z,4.30
2018-02-12T10:28:53.685Z,4.40
2018-02-12T10:31:20.121Z,4.40
2018-02-12T10:33:46.641Z,4.50
2018-02-12T10:36:13.186Z,4.50
2018-02-12T10:38:39.600Z,4.40
2018-02-12T10:41:06.046Z,4.90
2018-02-12T10:43:32.463Z,5.00
2018-02-12T10:45:58.900Z,5.20
2018-02-12T10:48:25.381Z,5.50
2018-02-12T10:50:51.811Z,5.30
2018-02-12T10:53:18.245Z,5.30
2018-02-12T10:55:44.773Z,5.90
2018-02-12T10:58:11.240Z,5.90
2018-02-12T11:00:37.946Z,6.10
2018-02-12T11:03:04.432Z,6.20
2018-02-12T11:05:30.965Z,5.80
2018-02-12T11:07:57.392Z,6.10
2018-02-12T11:10:23.900Z,6.30
2018-02-12T11:12:50.323Z,6.30
2018-02-12T11:15:16.830Z,6.40
2018-02-12T11:17:43.405Z,6.70
2018-02-12T11:20:09.902Z,6.50
2018-02-12T11:22:36.310Z,6.50
2018-02-12T11:25:02.869Z,6.80
2018-02-12T11:27:29.764Z,6.60
2018-02-12T11:29:56.226Z,6.50
2018-02-12T11:32:22.976Z,6.50
2018-02-12T11:34:49.637Z,6.60
2018-02-12T11:37:16.133Z,6.40
2018-02-12T11:39:42.916Z,6.60
2018-02-12T11:42:09.447Z,6.90
2018-02-12T11:44:36.110Z,7.00
2018-02-12T11:47:02.747Z,7.30
2018-02-12T11:49:29.227Z,7.40
2018-02-12T11:51:55.853Z,7.50
2018-02-12T11:54:22.646Z,7.70
2018-02-12T11:56:49.130Z,7.80
2018-02-12T11:59:16.197Z,8.00
2018-02-12T12:01:42.658Z,8.00
2018-02-12T12:04:09.080Z,7.70
2018-02-12T12:06:35.601Z,7.90
2018-02-12T12:09:02.103Z,8.10
2018-02-12T12:11:28.522Z,8.10
2018-02-12T12:13:54.935Z,8.00
2018-02-12T12:16:22.025Z,7.30
2018-02-12T12:18:48.461Z,7.80
2018-02-12T12:21:14.844Z,7.90
2018-02-12T12:23:41.281Z,7.80
2018-02-12T12:26:07.863Z,8.00
2018-02-12T12:28:34.321Z,7.90
2018-02-12T12:31:00.825Z,7.80
2018-02-12T12:33:27.253Z,8.20
2018-02-12T12:35:53.692Z,8.30
2018-02-12T12:38:20.163Z,7.80
2018-02-12T12:40:46.580Z,7.80
2018-02-12T12:43:12.992Z,7.60
2018-02-12T12:45:39.728Z,7.60
2018-02-12T12:48:06.918Z,7.40
2018-02-12T12:50:33.650Z,7.70
2018-02-12T12:53:00.146Z,7.60
2018-02-12T12:55:26.737Z,7.40
2018-02-12T12:57:53.199Z,7.20
2018-02-12T13:00:19.720Z,7.40
2018-02-12T13:02:46.116Z,7.50
2018-02-12T13:05:12.633Z,7.50
2018-02-12T13:07:39.112Z,7.10
2018-02-12T13:10:05.561Z,6.90
2018-02-12T13:12:32.029Z,7.10
2018-02-12T13:14:58.515Z,7.20
2018-02-12T13:17:24.973Z,7.10
2018-02-12T13:19:51.445Z,7.30
2018-02-12T13:22:17.915Z,7.60
2018-02-12T13:24:44.523Z,7.50
2018-02-12T13:27:11.285Z,7.60
2018-02-12T13:29:37.739Z,7.30
2018-02-12T13:32:04.216Z,7.40
2018-02-12T13:34:30.898Z,7.00
2018-02-12T13:36:57.479Z,6.70
2018-02-12T13:39:23.959Z,6.60
2018-02-12T13:41:50.493Z,6.50
2018-02-12T13:44:18.091Z,6.60
2018-02-12T13:46:45.329Z,6.70
2018-02-12T13:49:11.899Z,6.60
2018-02-12T13:51:38.331Z,6.70
2018-02-12T13:54:04.971Z,6.70
2018-02-12T13:56:31.648Z,6.70
2018-02-12T13:58:58.261Z,6.60
2018-02-12T14:01:24.706Z,6.80
2018-02-12T14:03:51.188Z,6.90
2018-02-12T14:06:17.799Z,6.60
2018-02-12T14:08:44.348Z,6.70
2018-02-12T14:11:12.361Z,6.50
2018-02-12T14:13:40.748Z,6.50
2018-02-12T14:16:07.461Z,6.50
2018-02-12T14:18:34.297Z,6.50
2018-02-12T14:21:01.338Z,6.50
2018-02-12T14:23:28.446Z,6.40
2018-02-12T14:25:55.527Z,6.30
2018-02-12T14:28:22.380Z,6.30
2018-02-12T14:30:49.429Z,6.30
2018-02-12T14:33:17.350Z,6.30
2018-02-12T14:35:44.546Z,6.20
2018-02-12T14:38:11.327Z,6.00
2018-02-12T14:40:38.011Z,6.00
2018-02-12T14:43:05.377Z,6.10
2018-02-12T14:45:33.332Z,5.90
2018-02-12T14:48:01.849Z,5.90
2018-02-12T14:50:32.096Z,5.90
2018-02-12T14:52:58.856Z,5.90
2018-02-12T14:55:25.865Z,5.80
2018-02-12T14:57:53.287Z,5.80
2018-02-12T15:00:21.236Z,5.80
2018-02-12T15:02:49.807Z,5.70
2018-02-12T15:05:17.386Z,5.80
2018-02-12T15:07:48.120Z,5.60
2018-02-12T15:10:15.100Z,5.60
2018-02-12T15:12:42.091Z,5.50
2018-02-12T15:15:09.957Z,5.40
2018-02-12T15:17:36.410Z,5.50
2018-02-12T15:20:02.875Z,5.40
2018-02-12T15:22:29.300Z,5.40
2018-02-12T15:24:55.829Z,5.40
2018-02-12T15:27:22.319Z,5.40
2018-02-12T15:29:48.782Z,5.30
2018-02-12T15:32:15.427Z,5.40
2018-02-12T15:34:41.992Z,5.30
2018-02-12T15:37:08.478Z,5.30
2018-02-12T15:39:35.176Z,5.10
2018-02-12T15:42:02.176Z,5.20
2018-02-12T15:44:28.760Z,5.20
2018-02-12T15:46:55.417Z,5.10
2018-02-12T15:49:21.848Z,5.10
2018-02-12T15:51:48.488Z,5.10
2018-02-12T15:54:14.942Z,5.00
2018-02-12T15:56:41.518Z,5.00
2018-02-12T15:59:07.916Z,5.10
2018-02-12T16:01:34.382Z,5.00
2018-02-12T16:04:00.845Z,5.00
2018-02-12T16:06:27.460Z,4.90
2018-02-12T16:08:53.916Z,4.90
2018-02-12T16:11:20.345Z,4.80
2018-02-12T16:13:46.820Z,4.90
2018-02-12T16:16:13.360Z,4.80
2018-02-12T16:18:40.203Z,4.70
2018-02-12T16:21:06.714Z,4.70
2018-02-12T16:23:33.134Z,4.70
2018-02-12T16:25:59.944Z,4.70
2018-02-12T16:28:26.354Z,4.80
2018-02-12T16:30:52.888Z,4.80
2018-02-12T16:33:19.353Z,4.80
2018-02-12T16:35:45.917Z,4.60
2018-02-12T16:38:12.457Z,4.70
2018-02-12T16:40:38.891Z,4.60
2018-02-12T16:43:05.377Z,4.60
2018-02-12T16:45:31.918Z,4.50
2018-02-12T16:47:58.378Z,4.50
2018-02-12T16:50:24.872Z,4.50
2018-02-12T16:52:51.546Z,4.50
2018-02-12T16:55:18.120Z,4.50
2018-02-12T16:57:44.962Z,4.60
2018-02-12T17:00:11.499Z,4.50
2018-02-12T17:02:37.946Z,4.40
2018-02-12T17:05:04.500Z,4.40
2018-02-12T17:07:31.726Z,4.40
2018-02-12T17:09:58.267Z,4.40
2018-02-12T17:12:25.161Z,4.40
2018-02-12T17:14:51.833Z,4.30
2018-02-12T17:17:18.735Z,4.30
2018-02-12T17:19:45.305Z,4.30
2018-02-12T17:22:11.744Z,4.30
2018-02-12T17:24:38.276Z,4.20
2018-02-12T17:27:04.705Z,4.30
2018-02-12T17:29:31.312Z,4.40
2018-02-12T17:31:57.816Z,4.30
2018-02-12T17:34:24.662Z,4.20
2018-02-12T17:36:52.139Z,4.20
2018-02-12T17:39:18.660Z,4.30
2018-02-12T17:41:45.158Z,4.20
2018-02-12T17:44:12.091Z,4.20
2018-02-12T17:46:38.828Z,4.20
2018-02-12T17:49:05.275Z,4.10
2018-02-12T17:51:31.717Z,4.10
2018-02-12T17:53:58.252Z,4.10
2018-02-12T17:56:24.925Z,4.10
2018-02-12T17:58:51.483Z,4.20
2018-02-12T18:01:18.185Z,4.20
2018-02-12T18:03:44.828Z,4.20
2018-02-12T18:06:11.635Z,4.00
2018-02-12T18:08:38.170Z,4.00
2018-02-12T18:11:04.611Z,3.90
2018-02-12T18:13:31.100Z,3.90
2018-02-12T18:15:57.654Z,3.80
2018-02-12T18:18:24.154Z,3.70
2018-02-12T18:20:50.610Z,3.70
2018-02-12T18:23:17.073Z,3.70
2018-02-12T18:25:43.689Z,3.60
2018-02-12T18:28:10.279Z,3.60
2018-02-12T18:30:36.718Z,3.50
2018-02-12T18:33:03.168Z,3.40
2018-02-12T18:35:29.688Z,3.40
2018-02-12T18:37:56.170Z,3.30
2018-02-12T18:40:22.931Z,3.20
2018-02-12T18:42:49.444Z,3.20
2018-02-12T18:45:16.000Z,3.20
2018-02-12T18:47:42.446Z,3.00
2018-02-12T18:50:08.982Z,2.80
2018-02-12T18:52:35.469Z,2.50
2018-02-12T18:55:01.950Z,2.60
2018-02-12T18:57:28.420Z,2.50
2018-02-12T18:59:54.867Z,2.50
2018-02-12T19:02:21.471Z,2.40
2018-02-12T19:04:48.115Z,2.10
2018-02-12T19:07:15.403Z,1.90
2018-02-12T19:09:42.134Z,1.70
2018-02-12T19:12:08.793Z,1.60
2018-02-12T19:14:35.406Z,1.50
2018-02-12T19:17:02.320Z,1.50
2018-02-12T19:19:30.093Z,1.40
2018-02-12T19:21:56.916Z,1.40
2018-02-12T19:24:23.422Z,1.60
2018-02-12T19:26:50.084Z,1.50
2018-02-12T19:29:16.899Z,1.50
2018-02-12T19:31:43.683Z,1.40
2018-02-12T19:34:10.469Z,1.40
2018-02-12T19:36:37.288Z,1.40
2018-02-12T19:39:04.175Z,1.50
2018-02-12T19:41:30.956Z,1.60
2018-02-12T19:43:57.838Z,1.40
2018-02-12T19:46:25.006Z,1.30
2018-02-12T19:48:52.467Z,1.30
2018-02-12T19:51:20.203Z,1.20
2018-02-12T19:53:46.767Z,1.30
2018-02-12T19:56:13.489Z,1.20
2018-02-12T19:58:40.149Z,1.10
2018-02-12T20:01:06.751Z,1.00
2018-02-12T20:03:33.488Z,1.00
2018-02-12T20:06:00.367Z,0.90
2018-02-12T20:08:27.300Z,0.80
2018-02-12T20:10:53.849Z,0.70
2018-02-12T20:13:20.419Z,0.80
2018-02-12T20:15:47.040Z,0.90
2018-02-12T20:18:13.512Z,0.90
2018-02-12T20:20:39.939Z,0.70
2018-02-12T20:23:06.404Z,0.60
2018-02-12T20:25:33.052Z,0.60
2018-02-12T20:27:59.551Z,0.50
2018-02-12T20:30:26.028Z,0.50
2018-02-12T20:32:52.958Z,0.50
2018-02-12T20:35:19.425Z,0.50
2018-02-12T20:37:45.950Z,0.40
2018-02-12T20:40:12.539Z,0.20
2018-02-12T20:42:39.090Z,0.20
2018-02-12T20:45:05.676Z,0.20
2018-02-12T20:47:32.140Z,0.10
2018-02-12T20:49:58.653Z,0.20
2018-02-12T20:52:25.412Z,0.10
2018-02-12T20:54:51.961Z,0.20
2018-02-12T20:57:18.431Z,0.20
2018-02-12T20:59:44.868Z,0.20
2018-02-12T21:02:11.342Z,0.20
2018-02-12T21:04:37.828Z,0.20
2018-02-12T21:07:04.334Z,0.10
2018-02-12T21:09:30.821Z,0.10
2018-02-12T21:11:57.306Z,0.10
2018-02-12T21:14:23.819Z,0.10
2018-02-12T21:16:50.413Z,0.20
2018-02-12T21:19:16.846Z,0.30
2018-02-12T21:21:43.267Z,0.40
2018-02-12T21:24:09.727Z,0.40
2018-02-12T21:26:36.311Z,0.40
2018-02-12T21:29:02.723Z,0.30
2018-02-12T21:31:29.233Z,0.30
2018-02-12T21:33:55.723Z,0.20
2018-02-12T21:36:22.208Z,0.20
2018-02-12T21:38:48.680Z,0.30
2018-02-12T21:41:15.114Z,0.20
2018-02-12T21:43:41.518Z,0.10
2018-02-12T21:46:08.066Z,0.20
2018-02-12T21:48:34.480Z,0.20
2018-02-12T21:51:01.260Z,0.10
2018-02-12T21:53:27.995Z,0.10
2018-02-12T21:55:54.447Z,0.30
2018-02-12T21:58:21.063Z,0.30
2018-02-12T22:00:47.560Z,0.40
2018-02-12T22:03:14.175Z,0.40
2018-02-12T22:05:40.630Z,0.40
2018-02-12T22:08:07.147Z,0.50
2018-02-12T22:10:33.517Z,0.60
2018-02-12T22:13:00.055Z,0.60
2018-02-12T22:15:26.829Z,0.70
2018-02-12T22:17:53.886Z,0.70
2018-02-12T22:20:20.303Z,0.80
2018-02-12T22:22:46.911Z,0.90
2018-02-12T22:25:13.460Z,0.90
2018-02-12T22:27:40.083Z,0.90
2018-02-12T22:30:06.629Z,0.90
2018-02-12T22:32:33.103Z,1.00
2018-02-12T22:34:59.687Z,1.00
2018-02-12T22:37:26.127Z,1.00
2018-02-12T22:39:52.497Z,1.00
2018-02-12T22:42:18.972Z,1.40
2018-02-12T22:44:45.435Z,1.30
2018-02-12T22:47:11.947Z,1.10
2018-02-12T22:49:38.364Z,1.10
2018-02-12T22:52:04.876Z,1.30
2018-02-12T22:54:31.312Z,1.10
2018-02-12T22:56:57.752Z,0.90
2018-02-12T22:59:24.547Z,0.90
2018-02-12T23:01:51.236Z,0.80
2018-02-12T23:04:17.672Z,0.90
2018-02-12T23:06:44.112Z,0.90
2018-02-12T23:09:10.571Z,0.90
2018-02-12T23:11:37.045Z,0.90
2018-02-12T23:14:03.578Z,0.90
2018-02-12T23:16:30.033Z,0.90
2018-02-12T23:18:56.390Z,0.90
2018-02-12T23:21:22.816Z,0.90
2018-02-12T23:23:49.218Z,0.90
2018-02-12T23:26:15.663Z,0.90
2018-02-12T23:28:42.145Z,1.20
2018-02-12T23:31:08.750Z,0.90
2018-02-12T23:33:35.157Z,0.80
2018-02-12T23:36:01.681Z,0.80
2018-02-12T23:38:28.060Z,0.70
2018-02-12T23:40:54.435Z,0.80
2018-02-12T23:43:20.883Z,0.70
2018-02-12T23:45:47.403Z,0.60
2018-02-12T23:48:13.808Z,0.70
2018-02-12T23:50:40.237Z,0.60
2018-02-12T23:53:06.687Z,0.70
2018-02-12T23:55:33.213Z,1.10
2018-02-12T23:57:59.701Z,0.80
